Time;durP1;ratioP1;P1;durP2;ratioP2;P2;SDS_P1;SDS_P2;PMS_P1;PMS_P2;Temp;Humidity;BMP_temperature;BMP_pressure;BME280_temperature;BME280_humidity;BME280_pressure;Samples;Min_cycle;Max_cycle;Signal;HPM_P1;HPM_P2
2023/10/14 00:04:55;;;;;;;13.97;13.00;;;21.20;62.30;;;;;;4861491;29;20503;-47
2023/10/14 00:07:24;;;;;;;14.00;13.17;;;21.10;63.00;;;;;;4867430;29;20476;-50
2023/10/14 00:09:51;;;;;;;14.10;13.30;;;21.10;62.90;;;;;;4865851;29;20440;-50
2023/10/14 00:12:17;;;;;;;13.43;12.53;;;21.00;63.30;;;;;;4864369;29;21573;-50
2023/10/14 00:14:46;;;;;;;13.87;12.97;;;21.00;64.30;;;;;;4866946;29;20432;-49
2023/10/14 00:17:18;;;;;;;13.00;12.13;;;21.00;63.10;;;;;;4867654;29;20439;-45
2023/10/14 00:19:49;;;;;;;13.17;12.30;;;21.00;63.10;;;;;;4865992;29;20555;-46
2023/10/14 00:22:18;;;;;;;13.80;12.80;;;21.00;63.70;;;;;;4866068;29;20440;-51
2023/10/14 00:24:43;;;;;;;15.00;13.90;;;21.00;63.70;;;;;;4866789;29;20475;-49
2023/10/14 00:27:09;;;;;;;14.30;13.40;;;20.90;63.20;;;;;;4867091;29;20503;-46
2023/10/14 00:29:35;;;;;;;13.47;12.57;;;20.90;63.00;;;;;;4865874;29;20271;-52
2023/10/14 00:32:03;;;;;;;14.17;13.00;;;21.00;62.50;;;;;;4866410;29;20192;-49
2023/10/14 00:34:29;;;;;;;13.40;12.60;;;21.00;63.60;;;;;;4867143;29;20788;-46
2023/10/14 00:36:56;;;;;;;13.73;12.77;;;21.00;64.80;;;;;;4864610;29;20444;-51
2023/10/14 00:39:27;;;;;;;13.67;12.87;;;20.90;65.30;;;;;;4866576;29;21188;-47
2023/10/14 00:41:53;;;;;;;13.90;12.97;;;20.90;65.20;;;;;;4865211;29;21003;-48
2023/10/14 00:44:20;;;;;;;13.30;12.50;;;20.90;65.70;;;;;;4864944;29;20448;-48
2023/10/14 00:46:49;;;;;;;14.43;13.37;;;20.90;65.70;;;;;;4866720;29;20504;-49
2023/10/14 00:49:23;;;;;;;14.33;13.30;;;20.90;65.90;;;;;;4864642;29;20448;-50
2023/10/14 00:51:58;;;;;;;13.33;12.37;;;20.90;66.40;;;;;;4864458;29;20444;-56
2023/10/14 00:54:40;;;;;;;13.60;12.70;;;20.80;67.00;;;;;;4866282;29;20474;-50
2023/10/14 00:59:49;;;;;;;13.77;12.97;;;20.80;67.70;;;;;;4866969;29;20483;-45
2023/10/14 01:02:15;;;;;;;14.20;13.30;;;20.80;68.10;;;;;;4865971;29;20523;-48
2023/10/14 01:04:48;;;;;;;13.13;12.33;;;20.70;68.50;;;;;;4865216;29;20436;-52
2023/10/14 01:07:14;;;;;;;14.20;13.30;;;20.70;68.30;;;;;;4865399;29;20451;-47
2023/10/14 01:12:18;;;;;;;14.30;13.40;;;20.60;68.80;;;;;;4865084;29;20546;-49
2023/10/14 01:14:44;;;;;;;14.33;13.37;;;20.60;70.10;;;;;;4864782;29;20448;-50
2023/10/14 01:17:14;;;;;;;14.20;13.20;;;20.60;68.80;;;;;;4862738;29;20771;-47
2023/10/14 01:19:39;;;;;;;14.27;13.20;;;20.50;69.90;;;;;;4864560;29;20529;-47
2023/10/14 01:22:12;;;;;;;14.47;13.47;;;20.50;69.70;;;;;;4866579;29;20515;-47
2023/10/14 01:24:41;;;;;;;13.80;12.90;;;20.50;71.90;;;;;;4863762;29;20176;-47
2023/10/14 01:27:09;;;;;;;14.67;13.57;;;20.50;70.80;;;;;;4862557;29;20508;-49
2023/10/14 01:29:41;;;;;;;14.60;13.60;;;20.50;71.10;;;;;;4863811;29;20459;-48
2023/10/14 01:33:08;;;;;;;13.90;13.10;;;20.40;72.30;;;;;;4866365;29;20451;-47
2023/10/14 01:37:57;;;;;;;14.10;12.97;;;20.30;71.30;;;;;;4868649;29;20475;-45
2023/10/14 01:42:58;;;;;;;13.97;12.97;;;20.30;73.30;;;;;;4869498;29;20444;-47
2023/10/14 01:45:31;;;;;;;14.20;13.30;;;20.30;73.00;;;;;;4869241;29;20455;-50
2023/10/14 01:48:12;;;;;;;13.93;13.03;;;20.20;73.40;;;;;;4868173;29;20982;-48
2023/10/14 01:50:57;;;;;;;13.73;12.83;;;20.20;73.30;;;;;;4867973;29;20448;-48
2023/10/14 01:53:28;;;;;;;14.93;13.80;;;20.20;74.50;;;;;;4869639;29;20456;-45
2023/10/14 01:55:57;;;;;;;13.67;12.77;;;20.20;73.70;;;;;;4867763;29;20483;-50
2023/10/14 01:58:30;;;;;;;14.30;13.17;;;20.20;73.90;;;;;;4868660;29;21170;-49
2023/10/14 02:03:41;;;;;;;14.43;13.47;;;20.10;72.50;;;;;;4869267;29;20527;-50
2023/10/14 02:06:11;;;;;;;13.37;12.50;;;20.20;73.80;;;;;;4866992;29;20447;-51
2023/10/14 02:08:37;;;;;;;14.27;13.37;;;20.20;74.40;;;;;;4869373;29;20436;-49
2023/10/14 02:11:03;;;;;;;13.70;12.80;;;20.30;71.60;;;;;;4869220;29;21035;-53
2023/10/14 02:13:28;;;;;;;14.97;13.97;;;20.30;73.40;;;;;;4868104;29;20448;-49
2023/10/14 02:15:59;;;;;;;14.80;13.77;;;20.30;71.00;;;;;;4869406;29;20929;-51
2023/10/14 02:18:25;;;;;;;13.93;13.13;;;20.30;72.00;;;;;;4867880;29;20239;-50
2023/10/14 02:23:44;;;;;;;14.00;13.10;;;20.40;72.10;;;;;;4869413;29;20416;-52
2023/10/14 02:26:24;;;;;;;14.00;13.20;;;20.30;72.20;;;;;;4868143;29;20440;-46
2023/10/14 02:28:54;;;;;;;14.83;13.47;;;20.40;69.60;;;;;;4868120;29;20490;-52
2023/10/14 02:34:04;;;;;;;14.17;13.17;;;20.50;70.40;;;;;;4868816;29;20437;-50
2023/10/14 02:36:29;;;;;;;14.60;13.70;;;20.50;68.60;;;;;;4868751;29;20432;-47
2023/10/14 02:38:56;;;;;;;13.83;12.83;;;20.60;67.60;;;;;;4868122;29;20505;-51
2023/10/14 02:41:26;;;;;;;13.30;12.50;;;20.70;66.30;;;;;;4867713;29;20707;-48
2023/10/14 02:46:33;;;;;;;13.37;12.57;;;21.00;65.20;;;;;;4868256;29;20436;-49
2023/10/14 02:49:09;;;;;;;14.00;13.10;;;21.30;62.30;;;;;;4866292;29;20458;-47
2023/10/14 02:51:44;;;;;;;13.77;12.97;;;21.40;61.90;;;;;;4868261;29;21220;-48
2023/10/14 02:54:33;;;;;;;14.07;13.27;;;21.40;61.70;;;;;;4867608;29;20520;-47
2023/10/14 02:57:00;;;;;;;14.63;13.73;;;21.50;61.00;;;;;;4868747;29;20424;-49
2023/10/14 03:02:18;;;;;;;13.23;12.53;;;21.60;60.70;;;;;;4866668;29;20448;-49
2023/10/14 03:07:48;;;;;;;13.53;12.83;;;21.70;60.20;;;;;;4865853;29;20444;-48
2023/10/14 03:10:27;;;;;;;13.90;12.70;;;21.70;59.50;;;;;;4867696;29;20467;-47
2023/10/14 03:12:53;;;;;;;13.73;12.83;;;21.90;59.00;;;;;;4865188;29;21083;-51
2023/10/14 03:15:20;;;;;;;14.07;13.13;;;21.90;58.90;;;;;;4867350;29;20455;-50
2023/10/14 03:17:56;;;;;;;14.80;13.70;;;21.90;59.10;;;;;;4865173;29;20183;-52
2023/10/14 03:23:05;;;;;;;14.00;13.20;;;22.00;59.10;;;;;;4868619;29;20452;-48
2023/10/14 03:25:34;;;;;;;13.77;12.80;;;22.10;59.00;;;;;;4867155;29;20444;-50
2023/10/14 03:28:14;;;;;;;14.13;13.20;;;22.10;59.00;;;;;;4866306;29;20452;-52
2023/10/14 03:30:44;;;;;;;13.83;13.03;;;22.10;59.00;;;;;;4866641;29;20531;-48
2023/10/14 03:33:14;;;;;;;14.20;13.33;;;22.10;59.30;;;;;;4867093;29;20483;-50
2023/10/14 03:35:42;;;;;;;14.87;13.87;;;22.10;59.30;;;;;;4867209;29;20495;-49
2023/10/14 03:38:24;;;;;;;14.90;14.00;;;22.20;59.10;;;;;;4867146;29;20910;-49
2023/10/14 03:40:51;;;;;;;14.90;13.90;;;22.30;59.40;;;;;;4866510;29;20495;-53
2023/10/14 03:43:19;;;;;;;14.73;13.83;;;22.40;59.10;;;;;;4867959;29;20887;-49
2023/10/14 03:46:04;;;;;;;14.57;13.60;;;22.40;59.10;;;;;;4865644;29;20448;-46
2023/10/14 03:48:36;;;;;;;15.10;14.10;;;22.50;58.80;;;;;;4866515;29;20439;-51
2023/10/14 03:51:05;;;;;;;15.37;14.47;;;22.60;58.70;;;;;;4866849;29;20452;-47
2023/10/14 03:53:34;;;;;;;14.70;13.80;;;22.70;58.90;;;;;;4867053;29;20455;-46
2023/10/14 03:56:00;;;;;;;15.37;14.33;;;22.70;58.80;;;;;;4867456;29;20805;-46
2023/10/14 03:58:32;;;;;;;16.30;15.40;;;22.70;58.80;;;;;;4866412;29;20504;-49
2023/10/14 04:01:01;;;;;;;14.63;13.73;;;22.70;58.60;;;;;;4865750;29;20476;-52
2023/10/14 04:03:39;;;;;;;13.70;12.90;;;22.70;58.80;;;;;;4866974;29;20439;-49
2023/10/14 04:06:09;;;;;;;14.90;13.53;;;22.80;58.60;;;;;;4865310;29;20444;-46
2023/10/14 04:09:10;;;;;;;13.67;12.77;;;22.80;58.50;;;;;;4866452;29;20896;-50
2023/10/14 04:11:35;;;;;;;13.83;12.93;;;22.80;58.50;;;;;;4865998;29;20452;-49
2023/10/14 04:14:08;;;;;;;14.67;13.60;;;22.80;58.50;;;;;;4866489;29;20464;-49
2023/10/14 04:19:44;;;;;;;13.30;12.50;;;22.90;58.30;;;;;;4864413;29;20484;-46
2023/10/14 04:28:17;;;;;;;14.93;13.83;;;22.90;58.20;;;;;;4865947;29;20455;-50
2023/10/14 04:30:32;;;;;;;14.73;13.47;;;22.90;58.10;;;;;;4866220;29;20830;-50
2023/10/14 04:35:31;;;;;;;13.43;12.63;;;22.80;58.30;;;;;;4866983;29;21071;-45
2023/10/14 04:37:58;;;;;;;13.87;12.80;;;22.80;58.50;;;;;;4866920;29;20520;-51
2023/10/14 04:45:51;;;;;;;14.70;13.70;;;22.80;58.60;;;;;;4866275;29;20440;-48
2023/10/14 04:48:17;;;;;;;14.13;13.23;;;22.70;58.60;;;;;;4865946;29;20428;-47
2023/10/14 04:50:47;;;;;;;13.97;13.00;;;22.70;58.90;;;;;;4864552;29;20478;-51
2023/10/14 04:53:13;;;;;;;14.30;13.40;;;22.60;58.80;;;;;;4867111;29;20424;-53
2023/10/14 04:55:46;;;;;;;15.60;13.50;;;22.60;59.00;;;;;;4866771;29;20825;-46
2023/10/14 04:58:13;;;;;;;14.77;13.67;;;22.60;59.00;;;;;;4866833;29;21505;-48
2023/10/14 05:00:43;;;;;;;14.17;13.17;;;22.50;59.40;;;;;;4864121;29;20821;-47
2023/10/14 05:03:13;;;;;;;14.13;13.23;;;22.50;60.40;;;;;;4865618;29;20440;-51
2023/10/14 05:05:50;;;;;;;15.00;13.93;;;22.50;59.50;;;;;;4865848;29;20508;-49
2023/10/14 05:08:15;;;;;;;13.60;12.70;;;22.50;59.60;;;;;;4868138;29;20523;-50
2023/10/14 05:10:43;;;;;;;14.20;13.37;;;22.40;59.70;;;;;;4869769;29;20440;-48
2023/10/14 05:13:13;;;;;;;15.00;13.80;;;22.50;59.80;;;;;;4867850;29;20570;-50
2023/10/14 05:15:54;;;;;;;14.00;13.00;;;22.50;59.90;;;;;;4869159;29;21004;-48
2023/10/14 05:18:28;;;;;;;15.00;13.90;;;22.40;59.80;;;;;;4869664;29;20482;-50
2023/10/14 05:21:12;;;;;;;15.10;13.70;;;22.40;60.40;;;;;;4869820;29;20443;-47
2023/10/14 05:23:42;;;;;;;14.00;12.90;;;22.30;61.40;;;;;;4868790;29;20432;-49
2023/10/14 05:26:07;;;;;;;15.87;14.50;;;22.30;61.20;;;;;;4868017;29;20436;-50
2023/10/14 05:28:36;;;;;;;16.17;14.87;;;22.30;61.80;;;;;;4868348;29;21348;-50
2023/10/14 05:31:09;;;;;;;15.40;14.03;;;22.20;61.00;;;;;;4869122;29;20309;-49
2023/10/14 05:33:35;;;;;;;15.30;14.20;;;22.30;60.90;;;;;;4867074;29;20450;-46
2023/10/14 05:36:01;;;;;;;15.30;14.13;;;22.30;60.30;;;;;;4867396;29;20463;-50
2023/10/14 05:38:28;;;;;;;15.50;14.10;;;22.40;60.90;;;;;;4868932;29;20826;-50
2023/10/14 05:40:56;;;;;;;15.70;14.47;;;22.20;60.70;;;;;;4869424;29;20246;-46
2023/10/14 05:43:26;;;;;;;16.13;14.87;;;22.20;61.40;;;;;;4868760;29;20903;-51
2023/10/14 05:45:53;;;;;;;15.20;14.10;;;22.20;60.90;;;;;;4867631;29;21017;-53
2023/10/14 05:48:30;;;;;;;14.80;13.70;;;22.20;60.90;;;;;;4868009;29;20476;-50
2023/10/14 05:50:57;;;;;;;14.80;13.80;;;22.30;61.10;;;;;;4868601;29;20444;-48
2023/10/14 05:53:31;;;;;;;15.20;14.10;;;22.30;61.20;;;;;;4868557;29;20458;-49
2023/10/14 05:56:14;;;;;;;14.13;13.30;;;22.30;61.50;;;;;;4868805;29;20458;-47
2023/10/14 05:58:40;;;;;;;14.43;13.43;;;22.20;61.80;;;;;;4868131;29;20479;-48
2023/10/14 06:01:10;;;;;;;15.97;14.40;;;22.20;61.90;;;;;;4868904;29;20444;-52
2023/10/14 06:03:37;;;;;;;14.63;13.73;;;22.20;62.30;;;;;;4862994;29;20444;-48
2023/10/14 06:06:04;;;;;;;15.00;14.00;;;22.20;62.90;;;;;;4867808;29;20444;-49
2023/10/14 06:08:32;;;;;;;14.87;13.47;;;22.10;63.90;;;;;;4867855;29;20588;-45
2023/10/14 06:10:59;;;;;;;14.20;13.20;;;22.10;63.70;;;;;;4866187;29;20944;-49
2023/10/14 06:13:27;;;;;;;14.40;13.50;;;22.10;64.40;;;;;;4868594;29;20424;-44
2023/10/14 06:15:53;;;;;;;14.50;13.60;;;22.00;64.90;;;;;;4868819;29;20424;-49
2023/10/14 06:18:19;;;;;;;14.90;13.73;;;22.10;65.00;;;;;;4868065;29;20580;-51
2023/10/14 06:20:47;;;;;;;13.97;13.07;;;22.10;65.20;;;;;;4867951;29;20425;-49
2023/10/14 06:23:13;;;;;;;14.73;13.70;;;22.10;65.40;;;;;;4869076;29;20195;-49
2023/10/14 06:25:39;;;;;;;14.80;13.70;;;22.00;66.20;;;;;;4864021;29;21315;-52
2023/10/14 06:28:07;;;;;;;15.27;14.07;;;22.00;66.40;;;;;;4866253;29;20460;-50
2023/10/14 06:30:33;;;;;;;14.73;13.83;;;22.00;66.80;;;;;;4868060;29;20520;-53
2023/10/14 06:33:03;;;;;;;13.57;12.77;;;22.00;66.30;;;;;;4867309;29;20519;-49
2023/10/14 06:35:33;;;;;;;14.67;13.77;;;22.00;66.50;;;;;;4868186;29;20227;-49
2023/10/14 06:37:59;;;;;;;14.70;13.80;;;22.00;66.30;;;;;;4867028;29;20814;-49
2023/10/14 06:40:32;;;;;;;14.00;13.07;;;22.00;66.50;;;;;;4867489;29;20487;-48
2023/10/14 06:43:00;;;;;;;13.80;12.57;;;22.00;66.30;;;;;;4867890;29;20439;-46
2023/10/14 06:45:31;;;;;;;14.33;13.20;;;22.10;66.20;;;;;;4865853;29;20831;-50
2023/10/14 06:48:03;;;;;;;13.97;13.00;;;22.10;66.20;;;;;;4865829;29;20444;-48
2023/10/14 06:50:30;;;;;;;15.30;14.20;;;22.10;65.80;;;;;;4864928;29;20471;-50
2023/10/14 06:52:58;;;;;;;15.60;14.60;;;22.00;65.90;;;;;;4867644;29;20428;-46
2023/10/14 06:55:28;;;;;;;14.83;13.73;;;22.00;66.40;;;;;;4867726;29;20867;-50
2023/10/14 06:57:56;;;;;;;13.90;12.97;;;22.00;66.20;;;;;;4865349;29;21060;-44
2023/10/14 07:00:31;;;;;;;14.37;13.23;;;21.90;66.50;;;;;;4865223;29;20444;-49
2023/10/14 07:02:59;;;;;;;13.87;13.03;;;21.90;66.70;;;;;;4865765;29;20439;-47
2023/10/14 07:05:26;;;;;;;14.73;13.73;;;22.00;66.30;;;;;;4865824;29;20437;-46
2023/10/14 07:07:52;;;;;;;13.53;12.63;;;22.00;66.70;;;;;;4863525;29;20806;-44
2023/10/14 07:10:18;;;;;;;15.10;13.90;;;21.90;67.10;;;;;;4865781;29;20440;-51
2023/10/14 07:12:43;;;;;;;14.83;13.63;;;22.00;67.40;;;;;;4864906;29;20517;-48
2023/10/14 07:15:15;;;;;;;15.13;14.00;;;21.90;67.70;;;;;;4867050;29;20184;-46
2023/10/14 07:17:42;;;;;;;14.87;13.83;;;22.00;68.70;;;;;;4866863;29;20726;-44
2023/10/14 07:20:13;;;;;;;15.10;14.10;;;22.00;68.90;;;;;;4866188;29;20447;-48
2023/10/14 07:22:42;;;;;;;13.07;12.27;;;22.10;69.00;;;;;;4867246;29;20471;-48
2023/10/14 07:25:09;;;;;;;14.10;13.03;;;22.10;68.80;;;;;;4867612;29;20864;-50
2023/10/14 07:27:36;;;;;;;14.47;13.30;;;22.00;69.50;;;;;;4867110;29;20469;-46
2023/10/14 07:30:15;;;;;;;14.30;13.20;;;22.00;70.30;;;;;;4865479;29;20442;-48
2023/10/14 07:32:42;;;;;;;12.83;12.03;;;22.10;71.20;;;;;;4864962;29;20950;-45
2023/10/14 07:35:11;;;;;;;12.73;11.93;;;21.90;77.40;;;;;;4864951;29;20416;-48
2023/10/14 07:37:38;;;;;;;11.50;10.90;;;21.50;86.00;;;;;;4864465;29;20417;-46
2023/10/14 07:40:04;;;;;;;11.80;11.10;;;20.90;94.70;;;;;;4864377;29;20591;-47
2023/10/14 07:42:30;;;;;;;11.00;10.40;;;20.30;98.10;;;;;;4865477;29;21038;-48
2023/10/14 07:44:56;;;;;;;11.20;10.60;;;20.00;99.90;;;;;;4865067;29;20539;-44
2023/10/14 07:47:24;;;;;;;11.40;10.80;;;19.50;99.90;;;;;;4865602;29;20239;-47
2023/10/14 07:49:50;;;;;;;11.50;11.00;;;19.10;99.90;;;;;;4865824;29;20187;-49
2023/10/14 07:52:16;;;;;;;10.90;10.40;;;18.60;99.90;;;;;;4866558;29;20741;-47
2023/10/14 07:54:42;;;;;;;10.90;10.40;;;18.40;99.90;;;;;;4866852;29;20433;-47
2023/10/14 07:57:11;;;;;;;10.80;10.30;;;18.20;99.90;;;;;;4866470;29;20204;-42
2023/10/14 07:59:38;;;;;;;10.67;10.17;;;18.00;99.90;;;;;;4866903;29;20519;-46
2023/10/14 08:02:04;;;;;;;10.50;10.00;;;17.80;99.90;;;;;;4866997;29;20459;-47
2023/10/14 08:04:29;;;;;;;10.30;9.80;;;17.80;99.90;;;;;;4866574;29;20543;-48
2023/10/14 08:06:55;;;;;;;11.00;10.50;;;17.70;99.90;;;;;;4866342;29;20188;-47
2023/10/14 08:09:24;;;;;;;10.73;10.23;;;17.60;99.90;;;;;;4867134;29;20539;-45
2023/10/14 08:11:50;;;;;;;10.90;10.40;;;17.50;99.90;;;;;;4866391;29;20191;-48
2023/10/14 08:14:16;;;;;;;12.23;11.73;;;17.50;99.90;;;;;;4866212;29;20439;-46
2023/10/14 08:16:42;;;;;;;14.10;13.50;;;17.40;99.90;;;;;;4866393;29;20425;-49
2023/10/14 08:19:10;;;;;;;14.77;13.97;;;17.30;99.90;;;;;;4866348;29;20460;-45
2023/10/14 08:21:36;;;;;;;15.07;14.37;;;17.20;99.90;;;;;;4866000;29;20650;-42
2023/10/14 08:24:05;;;;;;;15.40;14.60;;;17.00;99.90;;;;;;4866556;29;20870;-40
2023/10/14 08:26:36;;;;;;;15.20;14.40;;;16.90;99.90;;;;;;4866126;29;20439;-43
2023/10/14 08:29:02;;;;;;;15.03;14.27;;;16.80;99.90;;;;;;4866146;29;20844;-45
2023/10/14 08:31:32;;;;;;;15.10;14.40;;;16.60;99.90;;;;;;4866217;29;20947;-42
2023/10/14 08:33:58;;;;;;;14.87;14.07;;;16.60;99.90;;;;;;4866318;29;20187;-42
2023/10/14 08:36:26;;;;;;;14.67;13.97;;;16.60;99.90;;;;;;4865954;29;21217;-43
2023/10/14 08:38:52;;;;;;;15.80;15.10;;;16.30;99.90;;;;;;4865917;29;20966;-41
2023/10/14 08:41:18;;;;;;;15.00;14.30;;;16.10;99.90;;;;;;4866219;29;21046;-42
2023/10/14 08:43:49;;;;;;;15.20;14.50;;;15.90;99.90;;;;;;4868214;29;20450;-42
2023/10/14 08:46:17;;;;;;;14.00;13.40;;;15.60;99.90;;;;;;4870398;29;20452;-46
2023/10/14 08:48:46;;;;;;;13.10;12.50;;;15.40;99.90;;;;;;4870054;29;20855;-42
2023/10/14 08:51:13;;;;;;;13.10;12.60;;;15.30;99.90;;;;;;4869787;29;20449;-46
2023/10/14 08:53:41;;;;;;;14.17;13.57;;;15.10;99.90;;;;;;4869500;29;20756;-44
2023/10/14 08:56:08;;;;;;;12.83;12.33;;;15.10;99.90;;;;;;4869948;29;20934;-40
2023/10/14 08:58:38;;;;;;;13.90;13.20;;;15.00;99.90;;;;;;4869888;29;20996;-42
2023/10/14 09:01:11;;;;;;;13.20;12.67;;;14.90;99.90;;;;;;4869879;29;20417;-41
2023/10/14 09:03:38;;;;;;;13.23;12.53;;;14.70;99.90;;;;;;4869736;29;20786;-41
2023/10/14 09:06:06;;;;;;;13.20;12.60;;;14.60;99.90;;;;;;4869739;29;20447;-42
2023/10/14 09:08:33;;;;;;;13.20;12.60;;;14.50;99.90;;;;;;4868253;29;20431;-42
2023/10/14 09:10:58;;;;;;;13.10;12.50;;;14.50;99.90;;;;;;4869454;29;20455;-41
2023/10/14 09:13:25;;;;;;;12.03;11.53;;;14.40;99.90;;;;;;4869753;29;20856;-41
2023/10/14 09:15:51;;;;;;;13.23;12.40;;;14.40;99.90;;;;;;4869677;29;20190;-43
2023/10/14 09:18:30;;;;;;;13.00;12.40;;;14.40;99.90;;;;;;4869188;29;20975;-44
2023/10/14 09:21:00;;;;;;;13.37;12.63;;;14.40;99.90;;;;;;4869250;29;20513;-42
2023/10/14 09:23:34;;;;;;;13.53;12.93;;;14.40;99.90;;;;;;4868735;29;20496;-43
2023/10/14 09:26:02;;;;;;;13.00;12.40;;;14.40;99.90;;;;;;4869836;29;20423;-42
2023/10/14 09:28:32;;;;;;;13.80;13.20;;;14.40;99.90;;;;;;4869090;29;20471;-43
2023/10/14 09:30:58;;;;;;;12.70;12.10;;;14.40;99.90;;;;;;4870288;29;20902;-42
2023/10/14 09:33:31;;;;;;;13.10;12.50;;;14.40;99.90;;;;;;4869039;29;20637;-44
2023/10/14 09:35:59;;;;;;;12.83;12.23;;;14.50;99.90;;;;;;4869321;29;21268;-44
2023/10/14 09:38:27;;;;;;;13.30;12.70;;;14.60;99.90;;;;;;4868595;29;20775;-45
2023/10/14 09:40:55;;;;;;;13.77;13.17;;;14.50;99.90;;;;;;4868855;29;20468;-41
2023/10/14 09:43:24;;;;;;;13.50;13.00;;;14.40;99.90;;;;;;4868812;29;20470;-42
2023/10/14 09:45:55;;;;;;;13.03;12.53;;;14.40;99.90;;;;;;4869583;29;20468;-41
2023/10/14 09:48:24;;;;;;;12.90;12.30;;;14.40;99.90;;;;;;4866322;29;20951;-42
2023/10/14 09:50:50;;;;;;;13.17;12.57;;;14.40;99.90;;;;;;4869185;29;20420;-44
2023/10/14 09:53:18;;;;;;;13.40;12.70;;;14.30;99.90;;;;;;4868268;29;20427;-46
2023/10/14 09:55:46;;;;;;;13.60;13.00;;;14.10;99.90;;;;;;4867273;29;21597;-45
2023/10/14 09:58:18;;;;;;;12.43;11.83;;;14.10;99.90;;;;;;4868399;29;20464;-43
2023/10/14 10:00:45;;;;;;;13.90;13.20;;;14.20;99.90;;;;;;4866560;29;20794;-46
2023/10/14 10:03:12;;;;;;;13.00;12.40;;;14.20;99.90;;;;;;4861620;29;20448;-45
2023/10/14 10:05:49;;;;;;;12.40;11.90;;;14.30;99.90;;;;;;4865417;29;20567;-46
2023/10/14 10:09:03;;;;;;;13.70;13.00;;;14.20;99.90;;;;;;4866660;29;20452;-45
2023/10/14 10:11:30;;;;;;;12.53;11.93;;;14.30;99.90;;;;;;4866345;29;21316;-46
2023/10/14 10:14:02;;;;;;;13.67;13.07;;;14.20;99.90;;;;;;4867152;29;20524;-46
2023/10/14 10:16:31;;;;;;;13.20;12.60;;;14.10;99.90;;;;;;4868376;29;20975;-42
2023/10/14 10:19:01;;;;;;;12.80;12.20;;;14.20;99.90;;;;;;4866088;29;20478;-47
2023/10/14 10:21:31;;;;;;;13.40;12.70;;;14.10;99.90;;;;;;4866748;29;20451;-43
2023/10/14 10:24:15;;;;;;;13.00;12.30;;;14.10;99.90;;;;;;4867036;29;20452;-43
2023/10/14 10:27:16;;;;;;;13.20;12.60;;;14.10;99.90;;;;;;4868224;29;20420;-43
2023/10/14 10:29:50;;;;;;;13.10;12.50;;;14.30;99.90;;;;;;4855953;29;21019;-43
2023/10/14 10:32:21;;;;;;;12.97;12.37;;;14.50;99.90;;;;;;4867576;29;20440;-48
2023/10/14 10:35:05;;;;;;;13.50;12.70;;;14.70;99.90;;;;;;4867844;29;20452;-48
2023/10/14 10:37:35;;;;;;;13.37;12.77;;;15.00;99.90;;;;;;4868586;29;20426;-46
2023/10/14 10:40:05;;;;;;;14.17;13.57;;;15.10;99.90;;;;;;4868494;29;20999;-44
2023/10/14 10:42:31;;;;;;;13.13;12.43;;;15.10;99.90;;;;;;4865610;29;20444;-46
2023/10/14 10:44:58;;;;;;;12.27;11.67;;;15.20;99.90;;;;;;4866677;29;20428;-49
2023/10/14 10:47:23;;;;;;;11.80;11.00;;;15.30;99.90;;;;;;4867734;29;20444;-49
2023/10/14 10:49:49;;;;;;;11.37;10.77;;;15.90;99.90;;;;;;4866706;29;20459;-46
2023/10/14 10:52:15;;;;;;;11.40;10.80;;;16.40;99.90;;;;;;4868003;29;20196;-46
2023/10/14 10:54:45;;;;;;;11.80;11.20;;;17.20;99.90;;;;;;4866057;29;20200;-45
2023/10/14 10:57:11;;;;;;;10.40;9.90;;;17.60;99.90;;;;;;4867933;29;20432;-48
2023/10/14 10:59:38;;;;;;;11.77;11.17;;;17.70;99.90;;;;;;4867947;29;20500;-48
2023/10/14 11:02:08;;;;;;;10.10;9.60;;;18.00;99.90;;;;;;4866573;29;20472;-48
2023/10/14 11:04:34;;;;;;;10.83;10.20;;;18.30;99.90;;;;;;4867231;29;20428;-46
2023/10/14 11:07:00;;;;;;;11.00;10.50;;;18.60;99.90;;;;;;4868511;29;20443;-46
2023/10/14 11:09:29;;;;;;;11.77;11.10;;;18.70;99.90;;;;;;4866946;29;20279;-44
2023/10/14 11:12:02;;;;;;;11.37;10.77;;;18.40;99.40;;;;;;4865727;29;20931;-49
2023/10/14 11:14:27;;;;;;;11.97;11.00;;;18.40;99.90;;;;;;4863328;29;20440;-48
2023/10/14 11:16:57;;;;;;;11.00;10.40;;;18.70;99.50;;;;;;4866329;29;20487;-47
2023/10/14 11:19:26;;;;;;;11.10;10.60;;;19.30;99.90;;;;;;4866202;29;20590;-48
2023/10/14 11:21:54;;;;;;;10.80;10.20;;;20.10;96.00;;;;;;4866373;29;20499;-45
2023/10/14 11:24:20;;;;;;;10.90;10.30;;;20.80;93.80;;;;;;4864858;29;20451;-49
2023/10/14 11:26:46;;;;;;;11.30;10.60;;;21.60;88.30;;;;;;4865658;29;20420;-47
2023/10/14 11:29:12;;;;;;;11.27;10.60;;;22.00;83.70;;;;;;4865713;29;20947;-49
2023/10/14 11:31:41;;;;;;;10.03;9.50;;;22.20;84.70;;;;;;4866927;29;20812;-51
2023/10/14 11:34:11;;;;;;;11.23;10.73;;;22.80;73.20;;;;;;4867164;29;20467;-47
2023/10/14 11:36:41;;;;;;;10.60;10.03;;;23.30;61.40;;;;;;4866131;29;20808;-49
2023/10/14 11:39:12;;;;;;;11.30;10.70;;;22.90;57.00;;;;;;4866922;29;20476;-46
2023/10/14 11:41:38;;;;;;;11.03;10.53;;;22.80;58.80;;;;;;4867005;29;20556;-51
2023/10/14 11:44:04;;;;;;;10.97;10.40;;;22.60;60.50;;;;;;4867819;29;20416;-47
2023/10/14 11:46:30;;;;;;;11.63;10.93;;;22.60;62.50;;;;;;4866426;29;20802;-46
2023/10/14 11:48:55;;;;;;;10.80;10.20;;;22.50;57.40;;;;;;4867750;29;20455;-48
2023/10/14 11:51:21;;;;;;;11.63;10.90;;;22.60;55.00;;;;;;4867681;29;20195;-45
2023/10/14 11:53:52;;;;;;;11.90;11.30;;;21.40;50.20;;;;;;4867773;29;20203;-49
2023/10/14 11:56:19;;;;;;;11.57;10.97;;;20.70;52.60;;;;;;4867209;29;20215;-48
2023/10/14 11:58:45;;;;;;;12.10;11.37;;;19.70;54.40;;;;;;4865237;29;21062;-49
2023/10/14 12:01:12;;;;;;;11.07;10.47;;;19.10;56.50;;;;;;4865050;29;20444;-48
2023/10/14 12:03:38;;;;;;;10.57;9.97;;;18.60;58.00;;;;;;4867630;29;20520;-45
2023/10/14 12:06:12;;;;;;;11.60;11.00;;;18.60;64.60;;;;;;4867556;29;20467;-51
2023/10/14 12:08:38;;;;;;;11.40;10.90;;;19.10;64.30;;;;;;4867446;29;20421;-47
2023/10/14 12:11:13;;;;;;;10.50;10.00;;;19.40;59.60;;;;;;4865951;29;20811;-46
2023/10/14 12:13:39;;;;;;;12.30;11.60;;;19.20;60.10;;;;;;4866872;29;20531;-48
2023/10/14 12:16:05;;;;;;;11.47;10.80;;;19.10;64.30;;;;;;4866788;29;20486;-50
2023/10/14 12:18:35;;;;;;;12.03;11.40;;;18.80;68.10;;;;;;4864575;29;20483;-45
2023/10/14 12:21:02;;;;;;;11.27;10.77;;;18.60;74.20;;;;;;4866135;29;20542;-46
2023/10/14 12:23:31;;;;;;;11.57;10.97;;;18.30;71.10;;;;;;4867312;29;20416;-47
2023/10/14 12:26:00;;;;;;;10.83;10.33;;;18.20;77.70;;;;;;4866611;29;20443;-46
2023/10/14 12:28:30;;;;;;;11.13;10.60;;;17.90;79.50;;;;;;4867627;29;20677;-46
2023/10/14 12:31:03;;;;;;;12.07;11.47;;;17.70;81.00;;;;;;4865837;29;20495;-44
2023/10/14 12:33:32;;;;;;;11.30;10.70;;;17.60;84.40;;;;;;4865665;29;20432;-45
2023/10/14 12:35:59;;;;;;;11.40;10.70;;;17.20;85.20;;;;;;4867436;29;20463;-46
2023/10/14 12:38:29;;;;;;;11.47;10.87;;;17.10;89.40;;;;;;4866714;29;20980;-39
2023/10/14 12:40:55;;;;;;;12.00;11.30;;;17.00;90.10;;;;;;4865492;29;20476;-40
2023/10/14 12:43:36;;;;;;;11.50;10.90;;;17.20;90.70;;;;;;4866266;29;20540;-41
2023/10/14 12:48:45;;;;;;;11.17;10.57;;;17.30;89.40;;;;;;4867176;29;20428;-40
2023/10/14 12:51:17;;;;;;;12.03;11.30;;;17.50;88.50;;;;;;4867185;29;20858;-39
2023/10/14 12:53:47;;;;;;;11.57;10.97;;;17.50;86.30;;;;;;4865616;29;20437;-41
2023/10/14 12:56:20;;;;;;;11.17;10.50;;;17.60;88.30;;;;;;4866657;29;20897;-40
2023/10/14 12:58:48;;;;;;;12.00;11.40;;;17.50;87.40;;;;;;4865709;29;20464;-39
2023/10/14 13:01:19;;;;;;;12.27;11.33;;;17.40;87.50;;;;;;4866324;29;20424;-41
2023/10/14 13:03:53;;;;;;;11.70;11.10;;;17.50;88.70;;;;;;4866154;29;20434;-40
2023/10/14 13:06:26;;;;;;;11.80;11.10;;;18.20;90.00;;;;;;4865832;29;20440;-43
2023/10/14 13:08:54;;;;;;;11.43;10.73;;;19.30;86.00;;;;;;4866902;29;20436;-39
2023/10/14 13:11:20;;;;;;;12.30;11.60;;;20.50;71.00;;;;;;4863365;29;20569;-44
2023/10/14 13:13:50;;;;;;;11.27;10.67;;;21.30;61.30;;;;;;4863736;29;20452;-42
2023/10/14 13:16:20;;;;;;;12.57;11.87;;;21.90;55.80;;;;;;4864511;29;20507;-41
2023/10/14 13:18:49;;;;;;;10.90;10.30;;;22.20;53.90;;;;;;4855133;29;20831;-46
2023/10/14 13:21:18;;;;;;;11.13;10.63;;;22.80;52.60;;;;;;4864673;29;20443;-43
2023/10/14 13:23:46;;;;;;;11.23;10.63;;;23.10;46.40;;;;;;4864610;29;21805;-43
2023/10/14 13:26:15;;;;;;;11.23;10.63;;;23.40;48.20;;;;;;4866339;29;20552;-44
2023/10/14 13:28:50;;;;;;;11.87;11.27;;;24.10;46.00;;;;;;4866409;29;20472;-48
2023/10/14 13:31:17;;;;;;;11.63;11.03;;;24.20;42.80;;;;;;4870062;29;20454;-46
2023/10/14 13:33:46;;;;;;;10.93;10.43;;;24.10;42.10;;;;;;4867344;29;20484;-44